Time;durP1;ratioP1;P1;durP2;ratioP2;P2;SDS_P1;SDS_P2;PMS_P1;PMS_P2;Temp;Humidity;BMP_temperature;BMP_pressure;BME280_temperature;BME280_humidity;BME280_pressure;Samples;Min_cycle;Max_cycle;Signal;HPM_P1;HPM_P2
2023/01/14 00:01:51;;;;;;;20.27;2.88;;;;;;;;;;5018734;28;20045;-79
2023/01/14 00:04:17;;;;;;;10.07;1.92;;;;;;;;;;5018113;28;20079;-79
2023/01/14 00:06:43;;;;;;;17.83;2.63;;;;;;;;;;5017726;28;20508;-79
2023/01/14 00:09:13;;;;;;;14.38;2.72;;;;;;;;;;5018142;28;20029;-79
2023/01/14 00:11:51;;;;;;;12.13;2.55;;;;;;;;;;4999822;28;20034;-79
2023/01/14 00:14:22;;;;;;;16.02;2.22;;;;;;;;;;5025966;28;20037;-79
2023/01/14 00:16:48;;;;;;;14.27;2.10;;;;;;;;;;5037135;28;20432;-79
2023/01/14 00:19:15;;;;;;;11.65;2.08;;;;;;;;;;5019721;28;20048;-79
2023/01/14 00:21:41;;;;;;;23.67;2.83;;;;;;;;;;5037304;28;20040;-79
2023/01/14 00:24:08;;;;;;;15.20;3.75;;;;;;;;;;5037353;28;20109;-80
2023/01/14 00:26:34;;;;;;;11.05;1.85;;;;;;;;;;5037985;28;20017;-80
2023/01/14 00:29:00;;;;;;;9.88;2.05;;;;;;;;;;5038835;28;20025;-80
2023/01/14 00:31:28;;;;;;;12.20;2.03;;;;;;;;;;5038936;28;20029;-79
2023/01/14 00:33:54;;;;;;;10.77;1.98;;;;;;;;;;5038890;28;20523;-79
2023/01/14 00:36:21;;;;;;;18.50;2.70;;;;;;;;;;5038565;28;20105;-79
2023/01/14 00:38:48;;;;;;;16.92;2.50;;;;;;;;;;5038583;28;20040;-79
2023/01/14 00:41:15;;;;;;;16.70;2.13;;;;;;;;;;5024636;28;20033;-79
2023/01/14 00:43:42;;;;;;;12.10;2.05;;;;;;;;;;5018905;28;20050;-79
2023/01/14 00:46:10;;;;;;;10.63;1.77;;;;;;;;;;5023129;28;20104;-79
2023/01/14 00:48:36;;;;;;;11.60;1.77;;;;;;;;;;5030581;28;20540;-79
2023/01/14 00:51:03;;;;;;;16.10;2.33;;;;;;;;;;5018348;28;20443;-79
2023/01/14 00:53:29;;;;;;;16.70;2.17;;;;;;;;;;5018766;28;20054;-79
2023/01/14 00:55:55;;;;;;;18.02;3.30;;;;;;;;;;5036676;28;20071;-79
2023/01/14 00:58:21;;;;;;;19.92;2.47;;;;;;;;;;5037574;28;20105;-79
2023/01/14 01:00:47;;;;;;;20.40;2.65;;;;;;;;;;5037366;28;20080;-79
2023/01/14 01:03:14;;;;;;;15.77;2.78;;;;;;;;;;5037871;28;20057;-79
2023/01/14 01:05:40;;;;;;;21.20;2.35;;;;;;;;;;5037307;28;20025;-79
2023/01/14 01:08:07;;;;;;;16.63;2.33;;;;;;;;;;5037251;28;20132;-79
2023/01/14 01:10:36;;;;;;;22.98;2.95;;;;;;;;;;5031359;28;20029;-79
2023/01/14 01:13:03;;;;;;;18.58;2.30;;;;;;;;;;5017459;28;20030;-79
2023/01/14 01:15:31;;;;;;;14.48;2.00;;;;;;;;;;5022782;28;20373;-79
2023/01/14 01:17:57;;;;;;;13.88;2.33;;;;;;;;;;5035901;28;20027;-80
2023/01/14 01:20:23;;;;;;;17.33;3.10;;;;;;;;;;5017148;28;20030;-80
2023/01/14 01:22:49;;;;;;;16.25;2.97;;;;;;;;;;5017509;28;20395;-79
2023/01/14 01:25:15;;;;;;;17.10;2.55;;;;;;;;;;5016995;28;20030;-79
2023/01/14 01:27:42;;;;;;;18.58;3.17;;;;;;;;;;5017244;28;20060;-79
2023/01/14 01:30:08;;;;;;;21.27;2.88;;;;;;;;;;5017050;28;20412;-79
2023/01/14 01:32:34;;;;;;;16.17;1.98;;;;;;;;;;5017242;28;20025;-79
2023/01/14 01:35:00;;;;;;;14.70;3.95;;;;;;;;;;5017523;28;20108;-79
2023/01/14 01:37:27;;;;;;;11.95;2.42;;;;;;;;;;5016419;28;20096;-79
2023/01/14 01:39:53;;;;;;;17.70;3.53;;;;;;;;;;5031859;28;20405;-79
2023/01/14 01:42:22;;;;;;;18.02;2.92;;;;;;;;;;5036174;28;20156;-79
2023/01/14 01:44:48;;;;;;;13.68;2.30;;;;;;;;;;5021753;28;20084;-79
2023/01/14 01:47:14;;;;;;;17.70;2.30;;;;;;;;;;5016024;28;20022;-80
2023/01/14 01:49:40;;;;;;;15.27;2.40;;;;;;;;;;5017723;28;20117;-79
2023/01/14 01:52:10;;;;;;;13.88;2.80;;;;;;;;;;5035467;28;20477;-79
2023/01/14 01:54:38;;;;;;;17.77;2.30;;;;;;;;;;5016200;28;20061;-79
2023/01/14 01:57:07;;;;;;;14.65;2.58;;;;;;;;;;5016124;28;20026;-79
2023/01/14 01:59:35;;;;;;;17.60;1.80;;;;;;;;;;5015900;28;20028;-79
2023/01/14 02:02:01;;;;;;;16.63;2.40;;;;;;;;;;5016226;28;20120;-79
2023/01/14 02:04:27;;;;;;;10.02;1.90;;;;;;;;;;5015997;28;20060;-79
2023/01/14 02:06:53;;;;;;;14.25;2.38;;;;;;;;;;5015850;28;20080;-79
2023/01/14 02:09:19;;;;;;;19.70;2.35;;;;;;;;;;5016281;28;20067;-79
2023/01/14 02:11:52;;;;;;;12.88;3.00;;;;;;;;;;5036125;28;20104;-79
2023/01/14 02:14:38;;;;;;;19.58;2.50;;;;;;;;;;5036357;28;20036;-79
2023/01/14 02:17:25;;;;;;;10.38;1.52;;;;;;;;;;5016405;28;20473;-79
2023/01/14 02:20:14;;;;;;;15.70;2.33;;;;;;;;;;5015667;28;20575;-79
2023/01/14 02:22:58;;;;;;;13.95;2.28;;;;;;;;;;5033961;28;20076;-79
2023/01/14 02:25:42;;;;;;;19.45;2.08;;;;;;;;;;5035299;28;20033;-79
2023/01/14 02:28:21;;;;;;;12.68;2.17;;;;;;;;;;5035413;28;20030;-79
2023/01/14 02:30:50;;;;;;;16.65;2.60;;;;;;;;;;5034899;28;20025;-79
2023/01/14 02:33:24;;;;;;;12.85;1.80;;;;;;;;;;5035624;28;20030;-79
2023/01/14 02:35:53;;;;;;;14.48;2.10;;;;;;;;;;5038415;28;20044;-79
2023/01/14 02:38:19;;;;;;;16.75;1.90;;;;;;;;;;5037344;28;20108;-79
2023/01/14 02:40:50;;;;;;;16.15;2.20;;;;;;;;;;5037393;28;20115;-79
2023/01/14 02:46:06;;;;;;;13.93;1.80;;;;;;;;;;5038264;28;20057;-79
2023/01/14 02:48:33;;;;;;;15.70;2.35;;;;;;;;;;5037774;28;20499;-79
2023/01/14 02:51:00;;;;;;;11.38;1.60;;;;;;;;;;5036867;28;20064;-79
2023/01/14 02:53:26;;;;;;;17.13;2.35;;;;;;;;;;5037576;28;20026;-79
2023/01/14 02:55:52;;;;;;;16.33;1.70;;;;;;;;;;5036668;28;20416;-79
2023/01/14 02:58:30;;;;;;;12.25;2.40;;;;;;;;;;5031096;28;20428;-79
2023/01/14 03:01:14;;;;;;;19.65;2.03;;;;;;;;;;5028442;28;20041;-79
2023/01/14 03:03:40;;;;;;;19.73;2.20;;;;;;;;;;5030373;28;20048;-79
2023/01/14 03:06:30;;;;;;;12.63;1.98;;;;;;;;;;5038837;28;20025;-79
2023/01/14 03:09:10;;;;;;;11.32;2.45;;;;;;;;;;5012276;28;20113;-80
2023/01/14 03:11:42;;;;;;;17.25;1.85;;;;;;;;;;5024360;28;20091;-79
2023/01/14 03:14:13;;;;;;;10.52;1.85;;;;;;;;;;5031187;28;20045;-79
2023/01/14 03:16:41;;;;;;;17.02;2.10;;;;;;;;;;5038309;28;20076;-80
2023/01/14 03:19:07;;;;;;;11.10;2.30;;;;;;;;;;5036308;28;20080;-80
2023/01/14 03:21:37;;;;;;;13.95;1.90;;;;;;;;;;5018850;28;20113;-80
2023/01/14 03:24:12;;;;;;;13.23;1.95;;;;;;;;;;5029130;28;20029;-79
2023/01/14 03:26:40;;;;;;;17.65;2.95;;;;;;;;;;5038032;28;20524;-79
2023/01/14 03:29:09;;;;;;;19.73;2.15;;;;;;;;;;5039157;28;20480;-79
2023/01/14 03:31:36;;;;;;;16.55;2.08;;;;;;;;;;5038794;28;20087;-79
2023/01/14 03:34:05;;;;;;;17.50;3.20;;;;;;;;;;5038951;28;20085;-79
2023/01/14 03:36:34;;;;;;;12.00;2.20;;;;;;;;;;5038648;28;20022;-79
2023/01/14 03:39:02;;;;;;;15.15;1.92;;;;;;;;;;5028983;28;20040;-79
2023/01/14 03:44:19;;;;;;;17.50;3.50;;;;;;;;;;5038063;28;20365;-79
2023/01/14 03:46:45;;;;;;;23.75;2.80;;;;;;;;;;5038308;28;20029;-79
2023/01/14 03:49:11;;;;;;;12.95;2.13;;;;;;;;;;5038346;28;20116;-79
2023/01/14 03:51:54;;;;;;;14.95;1.98;;;;;;;;;;5037803;28;20494;-79
2023/01/14 03:54:23;;;;;;;17.13;2.45;;;;;;;;;;5021478;28;20480;-79
2023/01/14 03:56:58;;;;;;;14.23;2.10;;;;;;;;;;5037652;28;20404;-79
2023/01/14 03:59:30;;;;;;;17.10;2.35;;;;;;;;;;5038998;28;20100;-79
2023/01/14 04:01:57;;;;;;;17.65;2.15;;;;;;;;;;5037795;28;20037;-79
2023/01/14 04:04:23;;;;;;;12.13;2.10;;;;;;;;;;5038469;28;20026;-79
2023/01/14 04:06:49;;;;;;;15.82;1.85;;;;;;;;;;5037100;28;20049;-79
2023/01/14 04:09:15;;;;;;;11.60;3.33;;;;;;;;;;5037059;28;20487;-79
2023/01/14 04:11:42;;;;;;;21.00;2.67;;;;;;;;;;5027877;28;20034;-79
2023/01/14 04:16:53;;;;;;;15.27;2.03;;;;;;;;;;5037621;28;20040;-79
2023/01/14 04:19:19;;;;;;;20.30;2.88;;;;;;;;;;5037539;28;20108;-79
2023/01/14 04:21:45;;;;;;;21.00;2.28;;;;;;;;;;5037623;28;20034;-79
2023/01/14 04:24:11;;;;;;;18.23;2.20;;;;;;;;;;5037160;28;20021;-79
2023/01/14 04:26:37;;;;;;;14.80;2.95;;;;;;;;;;5037684;28;20032;-78
2023/01/14 04:29:03;;;;;;;11.77;1.80;;;;;;;;;;5038899;28;20108;-79
2023/01/14 04:31:29;;;;;;;15.55;2.30;;;;;;;;;;5020011;28;20085;-79
2023/01/14 04:33:55;;;;;;;16.00;2.53;;;;;;;;;;5025901;28;20075;-79
2023/01/14 04:36:21;;;;;;;17.73;2.63;;;;;;;;;;5038474;28;20169;-79
2023/01/14 04:38:47;;;;;;;16.70;3.05;;;;;;;;;;5037909;28;20538;-79
2023/01/14 04:43:59;;;;;;;20.40;4.10;;;;;;;;;;5038235;28;20151;-79
2023/01/14 04:46:25;;;;;;;16.10;4.03;;;;;;;;;;5038861;28;20026;-79
2023/01/14 04:48:51;;;;;;;13.02;2.05;;;;;;;;;;5038462;28;20472;-79
2023/01/14 04:51:17;;;;;;;15.48;2.55;;;;;;;;;;5037764;28;20091;-79
2023/01/14 04:53:43;;;;;;;18.60;3.15;;;;;;;;;;5037411;28;20037;-79
2023/01/14 04:56:09;;;;;;;14.18;2.03;;;;;;;;;;5037539;28;20061;-79
2023/01/14 04:58:34;;;;;;;16.02;2.35;;;;;;;;;;5037115;28;20081;-79
2023/01/14 05:01:01;;;;;;;24.30;3.13;;;;;;;;;;5036958;28;20036;-79
2023/01/14 05:03:27;;;;;;;16.05;2.28;;;;;;;;;;5036503;28;20029;-79
2023/01/14 05:05:53;;;;;;;14.18;2.05;;;;;;;;;;5018991;28;20468;-79
2023/01/14 05:08:20;;;;;;;18.17;2.58;;;;;;;;;;5036200;28;20060;-79
2023/01/14 05:10:49;;;;;;;16.80;2.92;;;;;;;;;;5036428;28;20404;-79
2023/01/14 05:13:15;;;;;;;15.80;2.40;;;;;;;;;;5036257;28;20029;-79
2023/01/14 05:15:42;;;;;;;21.27;2.95;;;;;;;;;;5036400;28;20476;-79
2023/01/14 05:18:08;;;;;;;19.73;3.58;;;;;;;;;;5030389;28;20038;-79
2023/01/14 05:20:34;;;;;;;13.85;2.22;;;;;;;;;;5016839;28;20034;-79
2023/01/14 05:23:02;;;;;;;21.90;3.53;;;;;;;;;;5015618;28;20436;-78
2023/01/14 05:25:28;;;;;;;24.08;2.47;;;;;;;;;;5015654;28;20029;-79
2023/01/14 05:27:54;;;;;;;18.95;2.47;;;;;;;;;;5015988;28;20026;-79
2023/01/14 05:30:20;;;;;;;15.90;3.08;;;;;;;;;;5016456;28;20030;-79
2023/01/14 05:32:46;;;;;;;20.58;3.22;;;;;;;;;;5016618;28;20026;-79
2023/01/14 05:35:12;;;;;;;15.30;2.58;;;;;;;;;;5016589;28;20022;-79
2023/01/14 05:37:38;;;;;;;17.92;2.67;;;;;;;;;;5017176;28;20029;-79
2023/01/14 05:40:04;;;;;;;12.68;2.33;;;;;;;;;;5035733;28;20105;-79
2023/01/14 05:48:02;;;;;;;18.67;2.10;;;;;;;;;;5035828;28;20064;-79
2023/01/14 05:50:28;;;;;;;15.30;2.40;;;;;;;;;;5035833;28;20026;-79
2023/01/14 05:52:54;;;;;;;13.00;2.42;;;;;;;;;;5035105;28;20029;-79
2023/01/14 05:55:20;;;;;;;20.67;2.58;;;;;;;;;;5027884;28;20429;-79
2023/01/14 05:57:46;;;;;;;16.85;2.25;;;;;;;;;;5014427;28;20030;-79
2023/01/14 06:06:20;;;;;;;22.23;2.95;;;;;;;;;;5027048;28;20038;-79
2023/01/14 06:08:27;;;;;;;18.55;2.70;;;;;;;;;;5033637;28;20059;-79
2023/01/14 06:10:54;;;;;;;16.48;2.25;;;;;;;;;;5033697;28;20395;-79
2023/01/14 06:13:22;;;;;;;19.20;3.05;;;;;;;;;;5033834;28;20036;-79
2023/01/14 06:15:51;;;;;;;16.95;2.10;;;;;;;;;;5033888;28;20021;-79
2023/01/14 06:18:21;;;;;;;11.95;2.20;;;;;;;;;;5034314;28;20018;-79
2023/01/14 06:20:48;;;;;;;21.63;2.40;;;;;;;;;;5034145;28;20091;-79
2023/01/14 06:23:14;;;;;;;24.02;3.47;;;;;;;;;;5036206;28;20488;-79
2023/01/14 06:25:42;;;;;;;14.75;2.28;;;;;;;;;;5024857;28;20038;-79
2023/01/14 06:28:08;;;;;;;15.65;2.42;;;;;;;;;;5032640;28;20071;-79
2023/01/14 06:30:34;;;;;;;18.38;2.75;;;;;;;;;;5029527;28;20030;-79
2023/01/14 06:33:00;;;;;;;11.52;2.75;;;;;;;;;;5028601;28;20026;-79
2023/01/14 06:35:26;;;;;;;18.45;3.10;;;;;;;;;;5034471;28;20025;-79
2023/01/14 06:37:52;;;;;;;17.23;2.85;;;;;;;;;;5028840;28;20037;-79
2023/01/14 06:40:19;;;;;;;21.67;2.83;;;;;;;;;;5037182;28;20472;-79
2023/01/14 06:42:45;;;;;;;16.40;2.70;;;;;;;;;;5037104;28;20108;-79
2023/01/14 06:45:12;;;;;;;17.75;3.17;;;;;;;;;;5038015;28;20022;-79
2023/01/14 06:47:38;;;;;;;17.33;3.75;;;;;;;;;;5036654;28;20495;-79
2023/01/14 06:50:05;;;;;;;21.85;3.85;;;;;;;;;;5028329;28;20040;-79
2023/01/14 06:52:31;;;;;;;16.23;3.33;;;;;;;;;;5030894;28;20033;-79
2023/01/14 06:54:58;;;;;;;16.38;4.25;;;;;;;;;;5026292;28;20032;-79
2023/01/14 06:57:24;;;;;;;12.73;2.92;;;;;;;;;;5036863;28;20026;-79
2023/01/14 06:59:50;;;;;;;26.15;4.90;;;;;;;;;;5036724;28;20029;-79
2023/01/14 07:02:16;;;;;;;17.23;4.60;;;;;;;;;;5025476;28;20424;-79
2023/01/14 07:04:43;;;;;;;14.93;3.70;;;;;;;;;;5032198;28;20034;-79
2023/01/14 07:07:10;;;;;;;16.40;4.00;;;;;;;;;;5036127;28;20054;-79
2023/01/14 07:09:36;;;;;;;18.75;4.13;;;;;;;;;;5028786;28;20022;-79
2023/01/14 07:12:02;;;;;;;21.77;5.10;;;;;;;;;;5034713;28;21313;-79
2023/01/14 07:14:28;;;;;;;21.13;4.85;;;;;;;;;;5036631;28;20017;-79
2023/01/14 07:16:54;;;;;;;19.15;4.60;;;;;;;;;;5036364;28;20021;-79
2023/01/14 07:19:21;;;;;;;29.42;4.82;;;;;;;;;;5037025;28;20017;-79
2023/01/14 07:21:47;;;;;;;19.35;5.03;;;;;;;;;;5036583;28;20033;-79
2023/01/14 07:24:13;;;;;;;18.85;3.97;;;;;;;;;;5036302;28;20092;-79
2023/01/14 07:26:39;;;;;;;19.33;3.97;;;;;;;;;;5034282;28;20029;-79
2023/01/14 07:29:05;;;;;;;24.80;5.15;;;;;;;;;;5036161;28;20025;-79
2023/01/14 07:31:31;;;;;;;20.75;4.07;;;;;;;;;;5037045;28;20061;-79
2023/01/14 07:33:57;;;;;;;20.20;4.45;;;;;;;;;;5037182;28;20486;-79
2023/01/14 07:36:23;;;;;;;24.88;4.93;;;;;;;;;;5032918;28;20033;-79
2023/01/14 07:38:49;;;;;;;17.67;4.68;;;;;;;;;;5028595;28;20464;-79
2023/01/14 07:41:18;;;;;;;26.27;4.38;;;;;;;;;;5028991;28;20052;-79
2023/01/14 07:43:44;;;;;;;20.20;4.15;;;;;;;;;;5029509;28;20013;-79
2023/01/14 07:46:10;;;;;;;16.55;3.83;;;;;;;;;;5011547;28;20037;-79
2023/01/14 07:48:36;;;;;;;17.13;3.58;;;;;;;;;;5034769;28;20032;-80
2023/01/14 07:51:02;;;;;;;17.77;3.65;;;;;;;;;;5026979;28;20033;-80
2023/01/14 07:53:28;;;;;;;15.57;3.55;;;;;;;;;;5035267;28;20037;-80
2023/01/14 07:55:55;;;;;;;20.20;3.38;;;;;;;;;;5027272;28;20038;-81
2023/01/14 07:58:23;;;;;;;19.63;3.30;;;;;;;;;;5034683;28;20078;-81
2023/01/14 08:00:50;;;;;;;19.33;3.17;;;;;;;;;;5031511;28;20048;-81
2023/01/14 08:03:16;;;;;;;16.38;3.10;;;;;;;;;;5020691;28;20022;-81
2023/01/14 08:05:42;;;;;;;14.57;2.45;;;;;;;;;;5020590;28;20480;-81
2023/01/14 08:08:08;;;;;;;19.52;2.60;;;;;;;;;;5022311;28;20413;-81
2023/01/14 08:10:34;;;;;;;19.17;2.80;;;;;;;;;;5028088;28;20079;-81
2023/01/14 08:13:00;;;;;;;15.75;2.10;;;;;;;;;;5022699;28;20450;-81
2023/01/14 08:15:26;;;;;;;14.73;2.33;;;;;;;;;;5031282;28;20026;-81
2023/01/14 08:17:53;;;;;;;11.30;1.70;;;;;;;;;;5025697;28;20519;-81
2023/01/14 08:20:22;;;;;;;15.60;2.03;;;;;;;;;;5036784;28;20076;-81
2023/01/14 08:22:48;;;;;;;15.45;2.85;;;;;;;;;;5027838;28;20021;-81
2023/01/14 08:25:14;;;;;;;14.35;2.20;;;;;;;;;;5029343;28;20492;-81
2023/01/14 08:27:40;;;;;;;12.73;1.77;;;;;;;;;;5025184;28;20026;-82
2023/01/14 08:30:07;;;;;;;9.80;2.28;;;;;;;;;;5021939;28;20034;-81
2023/01/14 08:32:33;;;;;;;17.55;2.38;;;;;;;;;;5011969;28;20381;-81
2023/01/14 08:34:59;;;;;;;11.25;1.95;;;;;;;;;;5029247;28;20488;-81
2023/01/14 08:37:25;;;;;;;13.93;2.08;;;;;;;;;;5034871;28;20021;-81
2023/01/14 08:39:51;;;;;;;18.40;2.25;;;;;;;;;;5031875;28;20022;-81
2023/01/14 08:42:17;;;;;;;10.68;2.35;;;;;;;;;;5011410;28;20040;-81
2023/01/14 08:44:43;;;;;;;15.30;2.50;;;;;;;;;;5029022;28;20021;-82
2023/01/14 08:47:09;;;;;;;14.23;2.13;;;;;;;;;;5025147;28;20457;-81
2023/01/14 08:49:35;;;;;;;15.35;2.67;;;;;;;;;;5027832;28;20060;-81
2023/01/14 08:52:01;;;;;;;14.98;2.75;;;;;;;;;;5030452;28;20057;-81
2023/01/14 08:54:28;;;;;;;15.73;2.92;;;;;;;;;;5029917;28;20409;-81
2023/01/14 08:56:55;;;;;;;13.75;1.92;;;;;;;;;;5029664;28;20552;-81
2023/01/14 08:59:21;;;;;;;13.30;2.35;;;;;;;;;;5020238;28;20068;-81
2023/01/14 09:01:47;;;;;;;12.98;2.40;;;;;;;;;;5019135;28;20057;-81
2023/01/14 09:04:13;;;;;;;17.00;2.53;;;;;;;;;;5026342;28;20031;-82
2023/01/14 09:17:42;;;;;;;13.02;2.58;;;;;;;;;;5024340;28;20088;-81
2023/01/14 09:20:13;;;;;;;11.43;2.90;;;;;;;;;;5019199;28;20033;-81
2023/01/14 09:22:39;;;;;;;16.05;2.40;;;;;;;;;;5029823;28;20435;-81
2023/01/14 09:25:05;;;;;;;11.73;2.40;;;;;;;;;;5030780;28;20530;-81
2023/01/14 09:27:31;;;;;;;12.13;2.40;;;;;;;;;;5022513;28;20079;-81
2023/01/14 09:29:57;;;;;;;10.20;2.55;;;;;;;;;;5028509;28;20433;-81
2023/01/14 09:32:24;;;;;;;8.55;2.05;;;;;;;;;;5028153;28;20112;-81
2023/01/14 09:34:50;;;;;;;11.73;2.20;;;;;;;;;;5023629;28;20030;-81
2023/01/14 09:37:23;;;;;;;14.70;2.55;;;;;;;;;;5028364;28;20025;-82
2023/01/14 09:39:49;;;;;;;4.85;2.03;;;;;;;;;;5018342;28;20044;-81
2023/01/14 09:42:17;;;;;;;12.13;2.58;;;;;;;;;;5017292;28;20021;-81
2023/01/14 09:44:43;;;;;;;5.30;1.58;;;;;;;;;;4999931;28;20060;-81
2023/01/14 09:47:12;;;;;;;6.47;1.95;;;;;;;;;;5021967;28;20087;-81
2023/01/14 09:49:39;;;;;;;7.45;2.20;;;;;;;;;;5026482;28;20022;-81
2023/01/14 09:52:08;;;;;;;13.38;2.25;;;;;;;;;;5010447;28;20037;-82
2023/01/14 09:54:46;;;;;;;8.18;2.50;;;;;;;;;;5029041;28;20033;-81
2023/01/14 09:57:15;;;;;;;6.70;2.00;;;;;;;;;;5025244;28;20052;-81
2023/01/14 09:59:58;;;;;;;7.30;2.15;;;;;;;;;;5029095;28;20021;-81
2023/01/14 10:02:50;;;;;;;10.80;2.13;;;;;;;;;;5028275;28;20552;-81
2023/01/14 10:05:21;;;;;;;6.40;2.10;;;;;;;;;;4998395;28;20536;-81
2023/01/14 10:07:47;;;;;;;4.45;1.77;;;;;;;;;;5024938;28;20520;-82
2023/01/14 10:10:19;;;;;;;8.98;1.90;;;;;;;;;;5034950;28;20026;-82
2023/01/14 10:12:46;;;;;;;7.60;1.60;;;;;;;;;;5042418;28;20026;-82
2023/01/14 10:15:24;;;;;;;4.93;1.90;;;;;;;;;;5034128;28;20037;-81
2023/01/14 10:17:52;;;;;;;4.60;1.70;;;;;;;;;;5033696;28;20033;-82
2023/01/14 10:20:47;;;;;;;6.03;1.80;;;;;;;;;;5031432;28;20044;-80
2023/01/14 10:23:16;;;;;;;4.38;1.67;;;;;;;;;;5004718;28;20034;-80
2023/01/14 10:25:47;;;;;;;3.65;1.40;;;;;;;;;;5030793;28;20041;-81
2023/01/14 10:28:14;;;;;;;3.05;1.30;;;;;;;;;;5035970;28;20030;-80
2023/01/14 10:30:42;;;;;;;3.08;1.25;;;;;;;;;;5028520;28;20057;-82
2023/01/14 10:33:11;;;;;;;2.05;1.10;;;;;;;;;;5025352;28;20029;-83
2023/01/14 10:35:39;;;;;;;4.20;0.90;;;;;;;;;;5028336;28;20080;-81
2023/01/14 10:38:06;;;;;;;2.40;1.25;;;;;;;;;;5014114;28;20037;-82
2023/01/14 10:40:32;;;;;;;2.53;1.00;;;;;;;;;;5027718;28;20038;-82
2023/01/14 10:43:00;;;;;;;3.08;1.02;;;;;;;;;;5032311;28;20021;-82
2023/01/14 10:45:26;;;;;;;3.85;1.20;;;;;;;;;;5037438;28;20369;-83
2023/01/14 10:47:55;;;;;;;2.15;1.30;;;;;;;;;;5043685;28;20048;-83
2023/01/14 10:50:28;;;;;;;1.98;0.80;;;;;;;;;;5016928;28;20026;-82
2023/01/14 10:52:54;;;;;;;4.10;1.15;;;;;;;;;;5024472;28;20393;-82
2023/01/14 10:55:25;;;;;;;4.82;1.05;;;;;;;;;;5022592;28;20033;-83
2023/01/14 10:57:57;;;;;;;2.15;1.00;;;;;;;;;;5015661;28;20167;-81
2023/01/14 11:00:29;;;;;;;2.42;0.85;;;;;;;;;;5031644;28;20048;-83
2023/01/14 11:02:57;;;;;;;3.47;1.10;;;;;;;;;;5010655;28;20033;-83
2023/01/14 11:05:23;;;;;;;2.10;0.98;;;;;;;;;;5031716;28;20761;-83
2023/01/14 11:07:50;;;;;;;3.10;1.30;;;;;;;;;;5035281;28;20037;-83
2023/01/14 11:10:23;;;;;;;4.10;1.13;;;;;;;;;;5021462;28;20017;-83
2023/01/14 11:12:55;;;;;;;4.00;1.08;;;;;;;;;;5028820;28;20092;-83
2023/01/14 11:15:33;;;;;;;2.15;1.00;;;;;;;;;;5020969;28;20029;-82
2023/01/14 11:18:18;;;;;;;3.40;1.25;;;;;;;;;;5022490;28;20409;-82
2023/01/14 11:20:51;;;;;;;1.55;1.17;;;;;;;;;;5026234;28;20048;-82
2023/01/14 11:23:25;;;;;;;3.20;1.10;;;;;;;;;;5034746;28;20029;-82
2023/01/14 11:25:51;;;;;;;1.70;1.05;;;;;;;;;;5023120;28;20109;-83
2023/01/14 11:28:18;;;;;;;2.20;1.23;;;;;;;;;;5024197;28;20404;-83
2023/01/14 11:30:47;;;;;;;2.85;1.20;;;;;;;;;;5032180;28;20025;-83
2023/01/14 11:33:19;;;;;;;1.23;0.90;;;;;;;;;;5033309;28;20469;-82
2023/01/14 11:35:49;;;;;;;4.20;1.20;;;;;;;;;;5033325;28;20401;-83
2023/01/14 11:38:18;;;;;;;3.40;1.33;;;;;;;;;;5036474;28;20104;-82
2023/01/14 11:43:59;;;;;;;1.55;0.82;;;;;;;;;;5038518;28;20451;-82
2023/01/14 11:46:26;;;;;;;1.83;0.98;;;;;;;;;;5014757;28;20025;-83
2023/01/14 11:49:02;;;;;;;2.22;1.00;;;;;;;;;;5029781;28;20037;-82
2023/01/14 11:51:29;;;;;;;1.98;1.25;;;;;;;;;;5031701;28;20400;-83
2023/01/14 11:53:56;;;;;;;5.90;1.50;;;;;;;;;;5034145;28;20543;-82
2023/01/14 11:56:31;;;;;;;4.63;1.15;;;;;;;;;;5022412;28;20025;-83
2023/01/14 11:58:57;;;;;;;1.30;0.88;;;;;;;;;;5029786;28;20040;-83
2023/01/14 12:01:36;;;;;;;2.08;0.80;;;;;;;;;;5005531;28;20029;-82
2023/01/14 12:04:07;;;;;;;4.40;0.83;;;;;;;;;;5033049;28;20446;-82
2023/01/14 12:06:47;;;;;;;2.90;1.05;;;;;;;;;;5021293;28;20255;-82
2023/01/14 12:09:18;;;;;;;3.95;1.10;;;;;;;;;;5025400;28;20026;-83
2023/01/14 12:11:55;;;;;;;2.92;1.15;;;;;;;;;;5007172;28;20052;-82
2023/01/14 12:17:24;;;;;;;1.60;0.90;;;;;;;;;;5034961;28;20068;-83
2023/01/14 12:19:57;;;;;;;2.55;0.75;;;;;;;;;;5024202;28;20026;-82
2023/01/14 12:22:32;;;;;;;1.60;0.75;;;;;;;;;;5033009;28;20133;-83
2023/01/14 12:25:17;;;;;;;2.25;1.23;;;;;;;;;;5033049;28;20022;-83
2023/01/14 12:27:49;;;;;;;1.50;1.35;;;;;;;;;;5035907;28;20063;-83
2023/01/14 12:30:21;;;;;;;2.08;1.08;;;;;;;;;;5029377;28;20029;-84
2023/01/14 12:32:49;;;;;;;2.78;0.93;;;;;;;;;;5030409;28;20021;-82
2023/01/14 12:35:16;;;;;;;2.95;0.93;;;;;;;;;;5035619;28;20028;-80
2023/01/14 12:37:53;;;;;;;1.85;0.88;;;;;;;;;;5027198;28;20021;-83
2023/01/14 12:45:41;;;;;;;2.60;0.70;;;;;;;;;;5022224;28;20045;-83
2023/01/14 12:45:54;;;;;;;1.95;0.80;;;;;;;;;;5026998;28;20582;-82
2023/01/14 12:48:21;;;;;;;1.02;0.52;;;;;;;;;;5028040;28;20026;-82
2023/01/14 12:50:50;;;;;;;0.90;0.57;;;;;;;;;;5021728;28;20072;-82
2023/01/14 12:53:18;;;;;;;2.20;0.70;;;;;;;;;;5027262;28;20385;-82
2023/01/14 12:55:47;;;;;;;0.93;0.60;;;;;;;;;;5032631;28;20021;-82
2023/01/14 12:58:17;;;;;;;1.42;0.90;;;;;;;;;;5024050;28;20022;-83
2023/01/14 13:00:49;;;;;;;1.90;0.80;;;;;;;;;;5022411;28;20034;-82
2023/01/14 13:03:20;;;;;;;0.90;0.70;;;;;;;;;;5027705;28;20017;-82
2023/01/14 13:05:46;;;;;;;1.65;0.98;;;;;;;;;;5027298;28;20021;-81
2023/01/14 13:08:32;;;;;;;2.45;1.13;;;;;;;;;;5024650;28;20119;-81
2023/01/14 13:11:01;;;;;;;3.50;1.33;;;;;;;;;;5019412;28;20034;-82
2023/01/14 13:13:27;;;;;;;3.33;1.10;;;;;;;;;;5034055;28;20280;-82
2023/01/14 13:15:54;;;;;;;2.28;1.45;;;;;;;;;;5036022;28;20026;-81
2023/01/14 13:18:49;;;;;;;2.22;1.25;;;;;;;;;;5024694;28;20095;-82
2023/01/14 13:21:36;;;;;;;2.42;1.20;;;;;;;;;;4998076;28;20053;-81
2023/01/14 13:24:03;;;;;;;2.35;1.40;;;;;;;;;;5024606;28;20057;-81
2023/01/14 13:26:29;;;;;;;3.92;1.40;;;;;;;;;;5009218;28;20369;-81
2023/01/14 13:29:19;;;;;;;2.55;1.30;;;;;;;;;;5035172;28;20059;-82
2023/01/14 13:31:46;;;;;;;2.17;1.13;;;;;;;;;;5014347;28;20065;-81
2023/01/14 13:34:33;;;;;;;4.05;1.10;;;;;;;;;;5009865;28;20049;-82
2023/01/14 13:37:03;;;;;;;1.33;1.20;;;;;;;;;;5033194;28;20086;-83
2023/01/14 13:39:30;;;;;;;1.42;1.15;;;;;;;;;;5026056;28;20365;-82
2023/01/14 13:42:00;;;;;;;0.90;0.90;;;;;;;;;;5027592;28;20511;-82
2023/01/14 13:44:29;;;;;;;1.13;1.02;;;;;;;;;;5027672;28;20049;-81
2023/01/14 13:46:58;;;;;;;1.67;1.25;;;;;;;;;;5025769;28;20033;-79
2023/01/14 13:49:30;;;;;;;2.72;1.35;;;;;;;;;;5025458;28;20053;-79
2023/01/14 13:52:05;;;;;;;3.63;1.05;;;;;;;;;;5030778;28;20037;-79
2023/01/14 13:54:33;;;;;;;2.20;0.90;;;;;;;;;;5029335;28;20025;-80
2023/01/14 13:57:22;;;;;;;3.55;1.38;;;;;;;;;;5007807;28;20512;-79
2023/01/14 13:59:54;;;;;;;2.42;1.83;;;;;;;;;;5033575;28;20055;-79
2023/01/14 14:02:39;;;;;;;9.05;4.40;;;;;;;;;;5026693;28;20049;-79
2023/01/14 14:05:26;;;;;;;1.88;1.40;;;;;;;;;;5013057;28;20037;-79
2023/01/14 14:07:59;;;;;;;2.50;1.30;;;;;;;;;;5024312;28;20053;-79
2023/01/14 14:10:48;;;;;;;1.08;1.00;;;;;;;;;;5031575;28;20120;-79
2023/01/14 14:16:16;;;;;;;2.47;1.00;;;;;;;;;;5030440;28;20045;-80
2023/01/14 14:18:48;;;;;;;0.93;0.80;;;;;;;;;;5034223;28;20032;-80
2023/01/14 14:21:16;;;;;;;0.75;0.75;;;;;;;;;;5033031;28;20033;-80
2023/01/14 14:23:53;;;;;;;1.75;0.98;;;;;;;;;;5027662;28;20033;-80
2023/01/14 14:26:21;;;;;;;4.57;1.00;;;;;;;;;;5028386;28;20034;-80
2023/01/14 14:28:50;;;;;;;1.40;0.90;;;;;;;;;;5029391;28;20524;-80
2023/01/14 14:31:21;;;;;;;1.92;0.90;;;;;;;;;;5002638;28;20057;-80
2023/01/14 14:33:59;;;;;;;0.95;0.73;;;;;;;;;;5028445;28;20029;-80
2023/01/14 14:36:27;;;;;;;1.40;0.85;;;;;;;;;;5030993;28;20036;-80
2023/01/14 14:38:54;;;;;;;1.15;1.00;;;;;;;;;;5034358;28;20109;-80
2023/01/14 14:41:22;;;;;;;2.15;0.85;;;;;;;;;;5033539;28;20073;-80
2023/01/14 14:43:55;;;;;;;1.77;0.70;;;;;;;;;;5021517;28;20461;-80
2023/01/14 14:46:25;;;;;;;3.30;0.80;;;;;;;;;;5015398;28;20067;-80
2023/01/14 14:48:52;;;;;;;3.22;0.70;;;;;;;;;;5028581;28;20026;-80
2023/01/14 14:51:24;;;;;;;3.70;0.75;;;;;;;;;;5029849;28;20399;-80
2023/01/14 14:53:50;;;;;;;3.30;0.88;;;;;;;;;;5031559;28;20100;-80
2023/01/14 14:56:18;;;;;;;1.75;0.63;;;;;;;;;;5010670;28;20025;-81
2023/01/14 14:58:50;;;;;;;1.58;0.70;;;;;;;;;;5016834;28;20036;-81
2023/01/14 15:01:16;;;;;;;3.03;1.15;;;;;;;;;;5014897;28;20107;-81
2023/01/14 15:03:43;;;;;;;2.45;1.13;;;;;;;;;;5036514;28;20025;-81
2023/01/14 15:06:12;;;;;;;3.58;1.10;;;;;;;;;;5024930;28;20064;-81
2023/01/14 15:08:43;;;;;;;2.97;1.05;;;;;;;;;;5038914;28;20518;-81
2023/01/14 15:11:11;;;;;;;4.25;1.60;;;;;;;;;;5037479;28;20096;-81
2023/01/14 15:13:38;;;;;;;4.20;1.60;;;;;;;;;;5043186;28;20080;-81
2023/01/14 15:16:06;;;;;;;4.25;1.50;;;;;;;;;;5043397;28;20060;-82
2023/01/14 15:18:51;;;;;;;3.85;1.50;;;;;;;;;;5014695;28;20029;-81
2023/01/14 15:21:22;;;;;;;9.57;3.10;;;;;;;;;;5019903;28;20034;-81
2023/01/14 15:23:48;;;;;;;;;;;;;;;;;;5016172;28;20045;-83
2023/01/14 15:26:16;;;;;;;2.85;1.50;;;;;;;;;;5017551;28;19909;-83
2023/01/14 15:31:49;;;;;;;1.58;0.70;;;;;;;;;;5026746;28;20016;-81
2023/01/14 15:34:15;;;;;;;1.27;1.02;;;;;;;;;;5036965;28;20369;-81
2023/01/14 15:36:43;;;;;;;1.10;0.68;;;;;;;;;;5035821;28;20030;-81